Time;durP1;ratioP1;P1;durP2;ratioP2;P2;SDS_P1;SDS_P2;PMS_P1;PMS_P2;Temp;Humidity;BMP_temperature;BMP_pressure;BME280_temperature;BME280_humidity;BME280_pressure;Samples;Min_cycle;Max_cycle;Signal;HPM_P1;HPM_P2
2021/11/06 00:00:41;;;;;;;6.32;1.88;;;;;;;;;;5010427;28;20065;-77
2021/11/06 00:03:08;;;;;;;6.18;1.60;;;;;;;;;;5015762;28;20061;-78
2021/11/06 00:05:35;;;;;;;4.78;1.63;;;;;;;;;;5006580;28;20548;-79
2021/11/06 00:08:01;;;;;;;6.57;1.65;;;;;;;;;;5006830;28;20062;-79
2021/11/06 00:10:28;;;;;;;5.18;1.33;;;;;;;;;;5004171;28;20052;-79
2021/11/06 00:12:54;;;;;;;5.57;1.48;;;;;;;;;;4987067;28;20462;-78
2021/11/06 00:15:21;;;;;;;4.10;1.50;;;;;;;;;;5006671;28;20070;-79
2021/11/06 00:17:47;;;;;;;5.55;1.52;;;;;;;;;;5003138;28;20060;-79
2021/11/06 00:20:15;;;;;;;5.72;1.42;;;;;;;;;;5000686;28;20048;-80
2021/11/06 00:22:41;;;;;;;4.45;1.33;;;;;;;;;;4967184;28;20042;-78
2021/11/06 00:25:09;;;;;;;5.10;1.90;;;;;;;;;;4992375;28;20532;-78
2021/11/06 00:27:36;;;;;;;5.57;1.60;;;;;;;;;;4989275;28;20057;-78
2021/11/06 00:30:04;;;;;;;6.25;1.30;;;;;;;;;;4991288;28;20054;-78
2021/11/06 00:32:30;;;;;;;4.75;1.40;;;;;;;;;;4996291;28;20517;-78
2021/11/06 00:34:56;;;;;;;4.68;1.58;;;;;;;;;;4975756;28;20069;-78
2021/11/06 00:37:24;;;;;;;6.00;1.75;;;;;;;;;;4978509;28;20058;-78
2021/11/06 00:39:50;;;;;;;5.35;1.30;;;;;;;;;;4961862;28;20066;-78
2021/11/06 00:42:17;;;;;;;7.18;1.50;;;;;;;;;;4981582;28;20058;-78
2021/11/06 00:44:43;;;;;;;4.40;1.48;;;;;;;;;;4979053;28;20058;-78
2021/11/06 00:47:11;;;;;;;4.47;1.48;;;;;;;;;;4989884;28;20074;-78
2021/11/06 00:49:38;;;;;;;3.78;1.23;;;;;;;;;;4970918;28;20057;-78
2021/11/06 00:52:05;;;;;;;3.90;1.25;;;;;;;;;;4953743;28;20034;-78
2021/11/06 00:54:31;;;;;;;5.57;1.38;;;;;;;;;;5001273;28;20318;-78
2021/11/06 00:56:57;;;;;;;6.28;1.23;;;;;;;;;;4989440;28;20065;-79
2021/11/06 00:59:24;;;;;;;2.10;1.00;;;;;;;;;;4995715;28;20069;-78
2021/11/06 01:01:51;;;;;;;5.63;1.10;;;;;;;;;;4973565;28;20406;-78
2021/11/06 01:04:18;;;;;;;6.20;1.42;;;;;;;;;;4984604;28;20049;-77
2021/11/06 01:06:45;;;;;;;3.10;1.15;;;;;;;;;;5009236;28;20092;-77
2021/11/06 01:09:11;;;;;;;5.82;1.67;;;;;;;;;;4996478;28;20054;-77
2021/11/06 01:11:38;;;;;;;4.03;1.27;;;;;;;;;;5001918;28;20069;-76
2021/11/06 01:14:05;;;;;;;3.92;1.33;;;;;;;;;;4976432;28;20054;-77
2021/11/06 01:16:31;;;;;;;4.53;1.40;;;;;;;;;;4976188;28;20087;-77
2021/11/06 01:18:58;;;;;;;4.28;1.30;;;;;;;;;;4983039;28;20069;-79
2021/11/06 01:21:25;;;;;;;4.45;1.45;;;;;;;;;;4990013;28;20070;-79
2021/11/06 01:23:51;;;;;;;5.32;1.27;;;;;;;;;;4983022;28;20054;-79
2021/11/06 01:26:18;;;;;;;5.32;1.55;;;;;;;;;;4989203;28;20124;-79
2021/11/06 01:28:44;;;;;;;3.85;1.25;;;;;;;;;;4972680;28;20074;-78
2021/11/06 01:31:11;;;;;;;3.97;1.20;;;;;;;;;;4954549;28;20062;-78
2021/11/06 01:33:37;;;;;;;3.65;1.27;;;;;;;;;;4952702;28;20053;-79
2021/11/06 01:36:04;;;;;;;3.92;1.10;;;;;;;;;;4968907;28;20070;-80
2021/11/06 01:38:30;;;;;;;4.07;1.20;;;;;;;;;;4992092;28;20057;-79
2021/11/06 01:40:57;;;;;;;5.55;1.35;;;;;;;;;;4981750;28;20566;-80
2021/11/06 01:43:24;;;;;;;3.85;1.10;;;;;;;;;;4982878;28;20252;-79
2021/11/06 01:46:00;;;;;;;3.67;1.10;;;;;;;;;;4970215;28;20066;-79
2021/11/06 01:48:28;;;;;;;4.35;1.10;;;;;;;;;;4967091;28;20149;-79
2021/11/06 01:50:55;;;;;;;4.15;1.20;;;;;;;;;;4986364;28;20125;-79
2021/11/06 01:53:21;;;;;;;7.28;1.20;;;;;;;;;;4981761;28;20066;-80
2021/11/06 01:55:49;;;;;;;3.72;1.30;;;;;;;;;;4984956;28;20113;-80
2021/11/06 01:58:15;;;;;;;4.75;1.02;;;;;;;;;;4975350;28;20493;-79
2021/11/06 02:00:42;;;;;;;4.00;0.80;;;;;;;;;;4988586;28;20131;-79
2021/11/06 02:03:09;;;;;;;3.08;0.93;;;;;;;;;;4968190;28;20050;-79
2021/11/06 02:05:35;;;;;;;5.10;1.00;;;;;;;;;;4991425;28;20458;-79
2021/11/06 02:08:02;;;;;;;7.22;1.80;;;;;;;;;;4969137;28;20462;-79
2021/11/06 02:10:30;;;;;;;4.45;1.20;;;;;;;;;;4969553;28;20034;-79
2021/11/06 02:12:56;;;;;;;4.05;1.00;;;;;;;;;;4982022;28;20110;-79
2021/11/06 02:15:23;;;;;;;3.03;0.77;;;;;;;;;;4944335;28;20066;-80
2021/11/06 02:17:50;;;;;;;3.20;0.90;;;;;;;;;;4949095;28;20080;-80
2021/11/06 02:20:17;;;;;;;3.33;0.90;;;;;;;;;;4965509;28;20062;-79
2021/11/06 02:22:44;;;;;;;4.22;1.05;;;;;;;;;;4983192;28;20499;-80
2021/11/06 02:25:10;;;;;;;3.30;1.30;;;;;;;;;;4982764;28;20058;-79
2021/11/06 02:27:37;;;;;;;4.97;1.15;;;;;;;;;;4960209;28;20058;-79
2021/11/06 02:30:05;;;;;;;3.70;0.95;;;;;;;;;;4970241;28;20056;-79
2021/11/06 02:32:32;;;;;;;2.55;0.90;;;;;;;;;;4964775;28;20278;-78
2021/11/06 02:34:58;;;;;;;3.45;1.00;;;;;;;;;;4970995;28;20051;-79
2021/11/06 02:37:26;;;;;;;2.80;0.80;;;;;;;;;;4945138;28;20065;-78
2021/11/06 02:39:52;;;;;;;4.43;1.00;;;;;;;;;;4952402;28;20062;-79
2021/11/06 02:42:19;;;;;;;5.63;0.90;;;;;;;;;;4968746;28;20069;-79
2021/11/06 02:44:47;;;;;;;3.90;1.10;;;;;;;;;;4982576;28;20043;-81
2021/11/06 02:47:13;;;;;;;3.72;0.70;;;;;;;;;;4946980;28;20123;-80
2021/11/06 02:49:40;;;;;;;3.05;0.80;;;;;;;;;;4967804;28;20489;-80
2021/11/06 02:52:06;;;;;;;3.40;0.90;;;;;;;;;;4965769;28;20085;-80
2021/11/06 02:54:33;;;;;;;4.05;1.13;;;;;;;;;;4983281;28;22366;-78
2021/11/06 02:56:59;;;;;;;5.82;0.82;;;;;;;;;;4991934;28;20165;-79
2021/11/06 02:59:26;;;;;;;3.05;0.88;;;;;;;;;;4973944;28;20054;-80
2021/11/06 03:01:52;;;;;;;4.18;0.90;;;;;;;;;;4966702;28;20133;-79
2021/11/06 03:04:19;;;;;;;4.05;0.88;;;;;;;;;;4994505;28;20521;-79
2021/11/06 03:06:46;;;;;;;1.90;0.55;;;;;;;;;;4977315;28;20045;-79
2021/11/06 03:09:12;;;;;;;3.90;0.90;;;;;;;;;;4969698;28;20189;-78
2021/11/06 03:11:39;;;;;;;3.28;0.60;;;;;;;;;;4988108;28;20058;-79
2021/11/06 03:14:07;;;;;;;4.43;0.90;;;;;;;;;;4974633;28;20065;-78
2021/11/06 03:16:36;;;;;;;5.45;1.10;;;;;;;;;;4975468;28;20416;-78
2021/11/06 03:19:03;;;;;;;3.10;0.75;;;;;;;;;;4983070;28;20058;-79
2021/11/06 03:21:29;;;;;;;3.80;1.30;;;;;;;;;;4965391;28;20033;-79
2021/11/06 03:23:56;;;;;;;1.92;0.65;;;;;;;;;;4975714;28;20498;-79
2021/11/06 03:26:22;;;;;;;3.63;0.73;;;;;;;;;;4955295;28;20066;-78
2021/11/06 03:28:48;;;;;;;3.38;0.93;;;;;;;;;;4992540;28;20058;-79
2021/11/06 03:31:15;;;;;;;4.65;0.98;;;;;;;;;;4990397;28;20129;-79
2021/11/06 03:33:41;;;;;;;3.70;0.90;;;;;;;;;;4990308;28;20077;-79
2021/11/06 03:36:08;;;;;;;2.28;0.80;;;;;;;;;;4989625;28;20392;-78
2021/11/06 03:38:34;;;;;;;2.97;0.73;;;;;;;;;;4969970;28;20053;-79
2021/11/06 03:41:00;;;;;;;2.35;0.70;;;;;;;;;;4975189;28;20490;-79
2021/11/06 03:43:27;;;;;;;3.30;0.70;;;;;;;;;;4987194;28;20092;-79
2021/11/06 03:45:53;;;;;;;3.30;0.90;;;;;;;;;;4988970;28;20061;-78
2021/11/06 03:48:20;;;;;;;2.10;0.77;;;;;;;;;;4989990;28;20151;-79
2021/11/06 03:50:47;;;;;;;4.00;1.10;;;;;;;;;;4995852;28;20069;-79
2021/11/06 03:53:13;;;;;;;5.65;1.15;;;;;;;;;;4991294;28;20058;-79
2021/11/06 03:55:39;;;;;;;3.65;0.77;;;;;;;;;;4972656;28;20585;-79
2021/11/06 03:58:06;;;;;;;3.03;0.88;;;;;;;;;;4983572;28;20900;-80
2021/11/06 04:00:32;;;;;;;3.33;0.80;;;;;;;;;;4989197;28;20267;-79
2021/11/06 04:02:59;;;;;;;3.92;1.00;;;;;;;;;;4970942;28;20540;-79
2021/11/06 04:05:26;;;;;;;2.63;0.70;;;;;;;;;;4992918;28;20050;-79
2021/11/06 04:07:52;;;;;;;3.03;0.90;;;;;;;;;;4996528;28;20072;-79
2021/11/06 04:10:19;;;;;;;2.33;0.88;;;;;;;;;;4989853;28;20141;-79
2021/11/06 04:12:45;;;;;;;2.45;0.70;;;;;;;;;;4974032;28;20108;-79
2021/11/06 04:15:12;;;;;;;2.58;0.68;;;;;;;;;;4985761;28;20089;-79
2021/11/06 04:17:39;;;;;;;3.03;0.70;;;;;;;;;;4990128;28;20027;-78
2021/11/06 04:20:06;;;;;;;3.45;0.80;;;;;;;;;;4994254;28;20054;-79
2021/11/06 04:22:33;;;;;;;4.47;0.77;;;;;;;;;;4992178;28;20042;-79
2021/11/06 04:24:59;;;;;;;5.90;0.75;;;;;;;;;;4976043;28;20077;-79
2021/11/06 04:27:26;;;;;;;3.70;0.80;;;;;;;;;;4988188;28;20077;-79
2021/11/06 04:29:52;;;;;;;3.47;0.80;;;;;;;;;;4990166;28;20058;-79
2021/11/06 04:32:18;;;;;;;3.83;0.70;;;;;;;;;;4986530;28;20138;-79
2021/11/06 04:34:45;;;;;;;2.83;0.70;;;;;;;;;;4990021;28;20073;-79
2021/11/06 04:37:11;;;;;;;2.92;0.80;;;;;;;;;;4960970;28;20062;-79
2021/11/06 04:39:38;;;;;;;2.00;0.60;;;;;;;;;;4991167;28;20050;-79
2021/11/06 04:42:04;;;;;;;2.33;0.77;;;;;;;;;;4974492;28;20061;-78
2021/11/06 04:44:31;;;;;;;3.90;0.60;;;;;;;;;;4972774;28;20152;-79
2021/11/06 04:46:57;;;;;;;3.08;0.80;;;;;;;;;;4994652;28;20081;-79
2021/11/06 04:49:24;;;;;;;3.83;0.70;;;;;;;;;;4967474;28;20065;-79
2021/11/06 04:51:50;;;;;;;2.65;0.70;;;;;;;;;;4965840;28;20065;-79
2021/11/06 04:54:17;;;;;;;3.90;1.08;;;;;;;;;;4979433;28;20587;-79
2021/11/06 04:56:43;;;;;;;4.00;0.93;;;;;;;;;;4973567;28;20065;-79
2021/11/06 04:59:10;;;;;;;2.97;0.90;;;;;;;;;;4987802;28;20107;-79
2021/11/06 05:01:37;;;;;;;3.67;0.90;;;;;;;;;;4993153;28;20057;-79
2021/11/06 05:04:03;;;;;;;2.83;0.95;;;;;;;;;;4994015;28;20086;-79
2021/11/06 05:06:31;;;;;;;4.30;0.95;;;;;;;;;;4985781;28;20030;-80
2021/11/06 05:08:57;;;;;;;2.05;0.73;;;;;;;;;;4967519;28;20120;-79
2021/11/06 05:11:24;;;;;;;2.83;0.68;;;;;;;;;;4948240;28;20073;-79
2021/11/06 05:13:50;;;;;;;5.05;0.93;;;;;;;;;;4952837;28;20066;-80
2021/11/06 05:16:17;;;;;;;2.10;0.70;;;;;;;;;;4963981;28;20058;-79
2021/11/06 05:18:44;;;;;;;2.92;0.70;;;;;;;;;;4989971;28;20474;-79
2021/11/06 05:21:10;;;;;;;2.78;0.70;;;;;;;;;;4974653;28;20072;-79
2021/11/06 05:23:37;;;;;;;4.22;1.02;;;;;;;;;;4958846;28;20069;-79
2021/11/06 05:26:04;;;;;;;2.15;0.70;;;;;;;;;;4969022;28;20479;-79
2021/11/06 05:28:30;;;;;;;3.38;0.68;;;;;;;;;;4972395;28;20100;-79
2021/11/06 05:30:56;;;;;;;2.45;0.55;;;;;;;;;;4988826;28;20559;-80
2021/11/06 05:33:23;;;;;;;2.25;0.70;;;;;;;;;;4978842;28;20039;-79
2021/11/06 05:35:49;;;;;;;4.50;0.80;;;;;;;;;;4961532;28;20081;-79
2021/11/06 05:38:16;;;;;;;2.55;0.70;;;;;;;;;;4968416;28;20485;-79
2021/11/06 05:40:42;;;;;;;1.75;0.70;;;;;;;;;;4973084;28;20050;-79
2021/11/06 05:43:08;;;;;;;3.08;0.70;;;;;;;;;;4993571;28;20490;-79
2021/11/06 05:45:35;;;;;;;3.22;0.60;;;;;;;;;;4983425;28;20062;-79
2021/11/06 05:48:01;;;;;;;4.05;0.90;;;;;;;;;;4974617;28;20505;-77
2021/11/06 05:50:28;;;;;;;3.00;0.80;;;;;;;;;;4987144;28;20086;-78
2021/11/06 05:52:55;;;;;;;2.70;0.65;;;;;;;;;;4989713;28;20077;-78
2021/11/06 05:55:21;;;;;;;2.45;0.73;;;;;;;;;;4989411;28;20156;-78
2021/11/06 05:57:47;;;;;;;2.83;0.70;;;;;;;;;;4970584;28;20095;-78
2021/11/06 06:00:19;;;;;;;3.03;0.60;;;;;;;;;;4974765;28;20453;-78
2021/11/06 06:02:45;;;;;;;;;;;;;;;;;;4967966;28;20038;-78
2021/11/06 06:05:12;;;;;;;4.75;0.93;;;;;;;;;;4979793;28;19945;-79
2021/11/06 06:07:38;;;;;;;4.20;0.70;;;;;;;;;;4968616;28;20062;-79
2021/11/06 06:10:06;;;;;;;2.75;0.80;;;;;;;;;;4970992;28;20034;-79
2021/11/06 06:12:33;;;;;;;3.63;0.90;;;;;;;;;;4967641;28;20158;-78
2021/11/06 06:14:59;;;;;;;8.80;1.05;;;;;;;;;;4984719;28;20054;-78
2021/11/06 06:17:26;;;;;;;1.58;0.65;;;;;;;;;;4971502;28;20063;-78
2021/11/06 06:19:52;;;;;;;4.57;1.00;;;;;;;;;;4972519;28;20051;-78
2021/11/06 06:22:19;;;;;;;2.53;0.77;;;;;;;;;;4986429;28;20054;-77
2021/11/06 06:24:46;;;;;;;3.20;0.60;;;;;;;;;;4986164;28;20404;-77
2021/11/06 06:27:12;;;;;;;3.30;0.90;;;;;;;;;;4987257;28;20529;-77
2021/11/06 06:29:38;;;;;;;3.47;0.60;;;;;;;;;;4971817;28;20069;-78
2021/11/06 06:32:05;;;;;;;3.17;1.00;;;;;;;;;;4969237;28;20071;-79
2021/11/06 06:34:31;;;;;;;3.38;0.80;;;;;;;;;;4967217;28;20624;-79
2021/11/06 06:36:58;;;;;;;3.00;0.80;;;;;;;;;;4968309;28;20063;-78
2021/11/06 06:39:24;;;;;;;4.03;0.80;;;;;;;;;;4969267;28;20066;-78
2021/11/06 06:41:50;;;;;;;2.30;0.70;;;;;;;;;;4946845;28;20109;-77
2021/11/06 06:44:17;;;;;;;4.13;0.85;;;;;;;;;;4962795;28;20471;-77
2021/11/06 06:46:44;;;;;;;3.17;0.85;;;;;;;;;;4966806;28;20066;-80
2021/11/06 06:49:10;;;;;;;3.08;0.65;;;;;;;;;;4970382;28;20074;-80
2021/11/06 06:51:37;;;;;;;3.83;0.60;;;;;;;;;;4933584;28;20110;-80
2021/11/06 06:54:03;;;;;;;3.35;0.90;;;;;;;;;;4977890;28;20502;-79
2021/11/06 06:56:30;;;;;;;2.92;0.70;;;;;;;;;;4956337;28;20566;-78
2021/11/06 06:58:57;;;;;;;5.13;0.88;;;;;;;;;;4967574;28;20031;-79
2021/11/06 07:01:23;;;;;;;5.13;0.80;;;;;;;;;;4966740;28;20119;-81
2021/11/06 07:03:50;;;;;;;6.10;0.70;;;;;;;;;;4936662;28;20093;-82
2021/11/06 07:06:17;;;;;;;3.38;0.68;;;;;;;;;;4973767;28;20050;-83
2021/11/06 07:08:43;;;;;;;3.92;0.98;;;;;;;;;;4971582;28;20066;-90
2021/11/06 07:11:10;;;;;;;3.90;0.80;;;;;;;;;;4978090;28;20090;-83
2021/11/06 07:13:37;;;;;;;3.15;0.80;;;;;;;;;;4972404;28;20486;-85
2021/11/06 07:16:05;;;;;;;3.67;0.90;;;;;;;;;;4956195;28;20038;-85
2021/11/06 07:18:31;;;;;;;4.50;1.13;;;;;;;;;;4962881;28;20046;-85
2021/11/06 07:21:00;;;;;;;5.35;1.15;;;;;;;;;;4988456;28;20061;-85
2021/11/06 07:23:27;;;;;;;4.18;1.10;;;;;;;;;;4970822;28;20126;-83
2021/11/06 07:25:59;;;;;;;3.22;1.65;;;;;;;;;;4964865;28;20043;-86
2021/11/06 07:28:26;;;;;;;3.75;1.23;;;;;;;;;;4957496;28;20066;-85
2021/11/06 07:30:55;;;;;;;6.00;1.20;;;;;;;;;;4953918;28;20035;-84
2021/11/06 07:33:23;;;;;;;4.93;1.08;;;;;;;;;;4951042;28;20039;-84
2021/11/06 07:35:49;;;;;;;4.18;1.08;;;;;;;;;;4971186;28;20037;-87
2021/11/06 07:38:16;;;;;;;4.38;1.20;;;;;;;;;;4935681;28;20499;-86
2021/11/06 07:40:43;;;;;;;4.25;1.20;;;;;;;;;;4937860;28;20073;-83
2021/11/06 07:43:10;;;;;;;4.53;1.20;;;;;;;;;;4960147;28;20070;-82
2021/11/06 07:45:37;;;;;;;4.28;1.52;;;;;;;;;;4937796;28;20125;-81
2021/11/06 07:48:04;;;;;;;4.32;1.50;;;;;;;;;;4955622;28;20045;-82
2021/11/06 07:50:31;;;;;;;6.22;1.58;;;;;;;;;;4948661;28;20166;-84
2021/11/06 07:52:57;;;;;;;4.40;1.77;;;;;;;;;;4939284;28;20605;-86
2021/11/06 07:55:24;;;;;;;10.10;2.47;;;;;;;;;;4969809;28;20071;-84
2021/11/06 07:57:50;;;;;;;6.78;1.83;;;;;;;;;;4956681;28;20435;-85
2021/11/06 08:00:18;;;;;;;7.90;1.80;;;;;;;;;;4945744;28;20063;-81
2021/11/06 08:02:45;;;;;;;9.02;2.38;;;;;;;;;;4967707;28;20062;-78
2021/11/06 08:05:13;;;;;;;6.03;1.50;;;;;;;;;;4967207;28;20086;-80
2021/11/06 08:07:40;;;;;;;5.47;1.70;;;;;;;;;;4967739;28;20436;-80
2021/11/06 08:10:07;;;;;;;10.82;2.03;;;;;;;;;;4970450;28;20139;-80
2021/11/06 08:12:37;;;;;;;8.30;1.70;;;;;;;;;;4953741;28;20514;-80
2021/11/06 08:15:04;;;;;;;6.13;1.40;;;;;;;;;;4970823;28;20479;-79
2021/11/06 08:17:30;;;;;;;6.78;2.10;;;;;;;;;;4948928;28;20066;-86
2021/11/06 08:19:57;;;;;;;6.40;1.88;;;;;;;;;;4970192;28;20031;-92
2021/11/06 08:22:23;;;;;;;7.68;2.00;;;;;;;;;;4929239;28;20047;-87
2021/11/06 08:24:50;;;;;;;6.80;1.63;;;;;;;;;;4946728;28;20087;-89
2021/11/06 08:27:16;;;;;;;5.43;1.73;;;;;;;;;;4953136;28;20055;-90
2021/11/06 08:29:43;;;;;;;6.78;2.13;;;;;;;;;;4946020;28;20148;-84
2021/11/06 08:32:09;;;;;;;6.78;2.28;;;;;;;;;;4936142;28;20039;-90
2021/11/06 08:34:36;;;;;;;7.65;1.90;;;;;;;;;;4974770;28;20118;-92
2021/11/06 08:37:02;;;;;;;5.85;1.52;;;;;;;;;;4963752;28;20022;-91
2021/11/06 08:39:29;;;;;;;7.45;1.63;;;;;;;;;;4988893;28;20042;-88
2021/11/06 08:41:56;;;;;;;4.93;1.77;;;;;;;;;;4966672;28;20030;-90
2021/11/06 08:44:23;;;;;;;5.43;1.50;;;;;;;;;;4962433;28;20034;-90
2021/11/06 08:46:50;;;;;;;10.93;1.70;;;;;;;;;;4960569;28;20019;-91
2021/11/06 08:49:18;;;;;;;4.18;1.80;;;;;;;;;;4956269;28;20062;-90
2021/11/06 08:51:45;;;;;;;5.75;1.85;;;;;;;;;;4980471;28;20050;-89
2021/11/06 08:54:11;;;;;;;6.60;1.58;;;;;;;;;;4971186;28;20034;-93
2021/11/06 08:56:38;;;;;;;5.72;1.50;;;;;;;;;;4973970;28;20059;-90
2021/11/06 08:59:06;;;;;;;6.40;1.95;;;;;;;;;;4942057;28;20030;-91
2021/11/06 09:01:33;;;;;;;5.45;1.40;;;;;;;;;;4938992;28;20106;-92
2021/11/06 09:03:59;;;;;;;8.02;1.58;;;;;;;;;;4983047;28;20034;-92
2021/11/06 09:06:26;;;;;;;7.38;1.40;;;;;;;;;;4958281;28;20031;-92
2021/11/06 09:08:53;;;;;;;7.10;1.60;;;;;;;;;;4980596;28;20055;-91
2021/11/06 09:11:20;;;;;;;7.05;1.50;;;;;;;;;;4985209;28;20041;-90
2021/11/06 09:13:51;;;;;;;7.18;1.25;;;;;;;;;;4959592;28;20494;-91
2021/11/06 09:16:17;;;;;;;5.63;1.67;;;;;;;;;;4972967;28;20079;-91
2021/11/06 09:18:44;;;;;;;3.30;1.00;;;;;;;;;;4978227;28;20502;-91
2021/11/06 09:21:12;;;;;;;3.92;1.20;;;;;;;;;;4964399;28;20031;-91
2021/11/06 09:23:39;;;;;;;7.28;1.60;;;;;;;;;;4979912;28;20034;-92
2021/11/06 09:26:06;;;;;;;5.20;1.55;;;;;;;;;;4964485;28;20038;-92
2021/11/06 09:28:38;;;;;;;6.32;1.20;;;;;;;;;;4977915;28;20042;-90
2021/11/06 09:31:04;;;;;;;4.88;1.30;;;;;;;;;;4972035;28;20023;-90
2021/11/06 09:33:31;;;;;;;4.68;1.15;;;;;;;;;;4957827;28;20097;-90
2021/11/06 09:35:57;;;;;;;4.57;1.10;;;;;;;;;;4958136;28;20042;-89
2021/11/06 09:38:24;;;;;;;6.15;1.33;;;;;;;;;;4976892;28;20394;-90
2021/11/06 09:40:50;;;;;;;3.78;1.00;;;;;;;;;;4963621;28;20066;-91
2021/11/06 09:43:17;;;;;;;2.47;0.98;;;;;;;;;;4933365;28;20065;-88
2021/11/06 09:45:44;;;;;;;4.20;0.98;;;;;;;;;;4962668;28;20039;-90
2021/11/06 09:48:11;;;;;;;5.03;1.00;;;;;;;;;;4985189;28;20118;-89
2021/11/06 09:50:38;;;;;;;3.75;1.05;;;;;;;;;;4975836;28;20057;-88
2021/11/06 09:53:04;;;;;;;3.38;1.10;;;;;;;;;;4943097;28;20034;-89
2021/11/06 09:55:32;;;;;;;3.25;0.90;;;;;;;;;;4961244;28;20093;-89
2021/11/06 09:57:58;;;;;;;5.95;1.10;;;;;;;;;;4985641;28;20062;-90
2021/11/06 10:00:25;;;;;;;3.83;1.00;;;;;;;;;;4963551;28;20058;-89
2021/11/06 10:02:56;;;;;;;4.07;0.80;;;;;;;;;;4952033;28;20026;-93
2021/11/06 10:05:22;;;;;;;;;;;;;;;;;;4961046;28;20129;-91
2021/11/06 10:07:49;;;;;;;2.67;0.80;;;;;;;;;;4975689;28;19914;-90
2021/11/06 10:10:16;;;;;;;3.63;0.75;;;;;;;;;;4942827;28;20057;-91
2021/11/06 10:12:49;;;;;;;6.38;1.20;;;;;;;;;;4961572;28;20578;-92
2021/11/06 10:15:16;;;;;;;4.60;1.15;;;;;;;;;;4971959;28;20031;-91
2021/11/06 10:17:43;;;;;;;4.22;1.00;;;;;;;;;;4959823;28;20023;-91
2021/11/06 10:20:24;;;;;;;4.03;1.23;;;;;;;;;;4966695;28;20078;-87
2021/11/06 10:22:51;;;;;;;;;;;;;;;;;;4975426;28;20039;-91
2021/11/06 10:25:19;;;;;;;3.25;1.25;;;;;;;;;;4942683;28;19973;-91
2021/11/06 10:27:50;;;;;;;3.25;0.90;;;;;;;;;;4976951;28;20034;-90
2021/11/06 10:30:20;;;;;;;5.03;1.17;;;;;;;;;;4952294;28;20070;-89
2021/11/06 10:32:55;;;;;;;3.30;0.98;;;;;;;;;;4986147;28;20262;-91
2021/11/06 10:35:23;;;;;;;4.70;1.13;;;;;;;;;;4974302;28;20030;-91
2021/11/06 10:37:56;;;;;;;4.28;1.17;;;;;;;;;;4979130;28;20035;-91
2021/11/06 10:40:22;;;;;;;3.65;1.05;;;;;;;;;;4989669;28;20034;-90
2021/11/06 10:42:53;;;;;;;3.90;0.90;;;;;;;;;;4983284;28;20023;-90
2021/11/06 10:45:21;;;;;;;5.50;1.20;;;;;;;;;;4959226;28;20042;-90
2021/11/06 10:48:01;;;;;;;3.03;1.00;;;;;;;;;;4943432;28;20558;-90
2021/11/06 10:50:46;;;;;;;2.35;0.85;;;;;;;;;;4978280;28;20058;-91
2021/11/06 10:53:15;;;;;;;3.30;0.95;;;;;;;;;;4980176;28;20030;-91
2021/11/06 10:55:42;;;;;;;4.18;1.25;;;;;;;;;;4960905;28;20237;-89
2021/11/06 10:58:38;;;;;;;3.33;1.10;;;;;;;;;;4957372;28;20078;-90
2021/11/06 11:01:09;;;;;;;4.93;0.90;;;;;;;;;;4977501;28;20035;-90
2021/11/06 11:03:40;;;;;;;3.03;0.90;;;;;;;;;;4982660;28;20332;-92
2021/11/06 11:06:12;;;;;;;6.45;1.20;;;;;;;;;;4983366;28;20460;-89
2021/11/06 11:08:49;;;;;;;4.13;0.98;;;;;;;;;;4968684;28;21299;-90
2021/11/06 11:11:20;;;;;;;4.30;0.95;;;;;;;;;;4955732;28;20045;-89
2021/11/06 11:13:48;;;;;;;2.05;0.80;;;;;;;;;;4950166;28;20081;-88
2021/11/06 11:16:16;;;;;;;2.45;0.73;;;;;;;;;;4953012;28;20035;-87
2021/11/06 11:18:43;;;;;;;2.65;0.88;;;;;;;;;;4983460;28;20027;-93
2021/11/06 11:21:17;;;;;;;4.07;0.90;;;;;;;;;;4975334;28;20038;-86
2021/11/06 11:23:54;;;;;;;3.30;0.80;;;;;;;;;;4970256;28;20094;-90
2021/11/06 11:26:22;;;;;;;3.25;0.80;;;;;;;;;;4981105;28;20105;-91
2021/11/06 11:28:49;;;;;;;2.25;0.60;;;;;;;;;;4983951;28;20039;-90
2021/11/06 11:31:16;;;;;;;2.80;0.90;;;;;;;;;;4946220;28;20031;-90
2021/11/06 11:33:44;;;;;;;2.92;0.70;;;;;;;;;;4964775;28;20031;-90
2021/11/06 11:36:11;;;;;;;3.25;0.65;;;;;;;;;;4942116;28;20046;-89
2021/11/06 11:38:38;;;;;;;1.83;0.63;;;;;;;;;;4982187;28;20367;-90
2021/11/06 11:41:11;;;;;;;4.15;0.75;;;;;;;;;;4963315;28;20843;-89
2021/11/06 11:43:56;;;;;;;2.72;1.08;;;;;;;;;;4941357;28;20047;-89
2021/11/06 11:46:28;;;;;;;3.28;0.77;;;;;;;;;;4954509;28;20368;-90
2021/11/06 11:48:56;;;;;;;1.50;0.60;;;;;;;;;;4977664;28;20042;-92
2021/11/06 11:51:30;;;;;;;2.17;0.70;;;;;;;;;;4958334;28;20027;-91
2021/11/06 11:54:02;;;;;;;3.97;1.08;;;;;;;;;;4936401;28;20069;-91
2021/11/06 11:56:29;;;;;;;4.10;0.90;;;;;;;;;;4944323;28;20055;-92
2021/11/06 11:58:57;;;;;;;1.63;0.60;;;;;;;;;;4973413;28;20065;-91
2021/11/06 12:01:24;;;;;;;1.48;0.80;;;;;;;;;;4952623;28;20104;-90
2021/11/06 12:03:51;;;;;;;3.63;0.80;;;;;;;;;;4973279;28;20070;-90
2021/11/06 12:06:23;;;;;;;2.17;0.63;;;;;;;;;;4973829;28;20035;-91
2021/11/06 12:08:53;;;;;;;1.77;0.70;;;;;;;;;;4937528;28;20043;-92
2021/11/06 12:11:24;;;;;;;1.95;0.70;;;;;;;;;;4954464;28;20561;-93
2021/11/06 12:13:52;;;;;;;3.53;0.90;;;;;;;;;;4974696;28;20035;-90
2021/11/06 12:16:20;;;;;;;2.25;0.77;;;;;;;;;;4963016;28;20043;-91
2021/11/06 12:18:53;;;;;;;3.38;1.08;;;;;;;;;;4969128;28;20038;-89
2021/11/06 12:21:45;;;;;;;2.78;0.80;;;;;;;;;;4942743;28;20502;-91
2021/11/06 12:24:12;;;;;;;3.10;0.90;;;;;;;;;;4977101;28;20427;-89
2021/11/06 12:26:47;;;;;;;3.90;1.00;;;;;;;;;;4984051;28;20058;-91
2021/11/06 12:29:19;;;;;;;3.75;0.90;;;;;;;;;;4955835;28;20034;-89
2021/11/06 12:31:47;;;;;;;2.50;0.88;;;;;;;;;;4974642;28;20046;-87
2021/11/06 12:34:46;;;;;;;1.40;0.60;;;;;;;;;;4969125;28;20038;-90
2021/11/06 12:37:33;;;;;;;1.75;0.60;;;;;;;;;;4961454;28;20069;-94
2021/11/06 12:40:00;;;;;;;3.35;0.77;;;;;;;;;;4945984;28;20083;-89
2021/11/06 12:42:29;;;;;;;3.88;0.80;;;;;;;;;;4939912;28;20089;-90
2021/11/06 12:44:59;;;;;;;2.05;0.68;;;;;;;;;;4968487;28;20039;-90
2021/11/06 12:47:26;;;;;;;2.58;0.70;;;;;;;;;;4967340;28;20588;-90
2021/11/06 12:49:53;;;;;;;3.80;0.70;;;;;;;;;;4983944;28;20134;-88
2021/11/06 12:52:21;;;;;;;2.45;0.93;;;;;;;;;;4956837;28;20069;-90
2021/11/06 12:54:49;;;;;;;2.05;0.80;;;;;;;;;;4973014;28;20126;-90
2021/11/06 12:57:32;;;;;;;3.30;0.60;;;;;;;;;;4969609;28;20057;-88
2021/11/06 12:59:58;;;;;;;2.90;0.80;;;;;;;;;;4947997;28;20035;-88
2021/11/06 13:02:25;;;;;;;3.95;0.65;;;;;;;;;;4973776;28;20104;-89
2021/11/06 13:04:58;;;;;;;2.08;0.73;;;;;;;;;;4988228;28;20056;-92
2021/11/06 13:07:26;;;;;;;2.42;0.70;;;;;;;;;;4972894;28;20044;-89
2021/11/06 13:09:52;;;;;;;2.80;0.80;;;;;;;;;;4948891;28;20089;-89
2021/11/06 13:12:19;;;;;;;3.08;0.70;;;;;;;;;;4969040;28;20042;-89
2021/11/06 13:14:52;;;;;;;2.40;0.70;;;;;;;;;;4979710;28;20121;-88
2021/11/06 13:17:18;;;;;;;2.90;0.90;;;;;;;;;;4948746;28;20073;-90
2021/11/06 13:19:45;;;;;;;3.53;0.95;;;;;;;;;;4969986;28;20043;-92
2021/11/06 13:22:13;;;;;;;4.00;0.70;;;;;;;;;;4988519;28;20041;-90
2021/11/06 13:24:55;;;;;;;2.20;0.70;;;;;;;;;;4959863;28;20066;-91
2021/11/06 13:27:40;;;;;;;1.92;0.68;;;;;;;;;;4957875;28;20047;-90
2021/11/06 13:30:27;;;;;;;2.17;0.70;;;;;;;;;;4973352;28;20057;-90
2021/11/06 13:32:55;;;;;;;3.05;0.75;;;;;;;;;;4992521;28;20034;-91
2021/11/06 13:35:22;;;;;;;1.13;0.50;;;;;;;;;;4969840;28;20030;-91
2021/11/06 13:38:08;;;;;;;2.55;0.65;;;;;;;;;;4975067;28;20034;-94
2021/11/06 13:40:51;;;;;;;2.70;0.77;;;;;;;;;;4995901;28;20039;-93
2021/11/06 13:43:22;;;;;;;4.22;0.70;;;;;;;;;;4969558;28;20096;-91
2021/11/06 13:46:07;;;;;;;1.33;0.50;;;;;;;;;;4981593;28;20038;-93
2021/11/06 13:48:38;;;;;;;2.92;0.85;;;;;;;;;;4971662;28;20063;-92
2021/11/06 13:51:15;;;;;;;1.90;0.73;;;;;;;;;;4967920;28;20058;-93
2021/11/06 13:53:53;;;;;;;1.90;0.73;;;;;;;;;;4994762;28;20033;-94
2021/11/06 13:56:19;;;;;;;1.63;0.52;;;;;;;;;;4961279;28;20085;-94
2021/11/06 13:58:46;;;;;;;1.92;0.60;;;;;;;;;;4996628;28;20034;-93
2021/11/06 14:01:12;;;;;;;2.60;0.60;;;;;;;;;;4973098;28;20089;-93
2021/11/06 14:03:40;;;;;;;3.05;0.88;;;;;;;;;;5002712;28;20573;-94
2021/11/06 14:06:06;;;;;;;2.25;1.10;;;;;;;;;;4962012;28;20031;-91
2021/11/06 14:08:32;;;;;;;2.28;0.55;;;;;;;;;;4976228;28;20027;-93
2021/11/06 14:11:03;;;;;;;1.70;0.68;;;;;;;;;;4974837;28;20195;-93
2021/11/06 14:13:29;;;;;;;2.40;0.73;;;;;;;;;;4948021;28;20101;-94
2021/11/06 14:15:56;;;;;;;2.40;0.60;;;;;;;;;;4971615;28;20079;-89
2021/11/06 14:18:23;;;;;;;1.38;0.57;;;;;;;;;;4988587;28;20043;-90
2021/11/06 14:21:03;;;;;;;2.83;0.90;;;;;;;;;;4989861;28;20035;-93
2021/11/06 14:23:36;;;;;;;1.58;0.70;;;;;;;;;;4993615;28;20422;-94
2021/11/06 14:26:23;;;;;;;3.08;0.80;;;;;;;;;;4992587;28;20031;-93
2021/11/06 14:28:51;;;;;;;2.72;0.50;;;;;;;;;;4957497;28;21246;-94
2021/11/06 14:31:35;;;;;;;1.10;0.50;;;;;;;;;;4963273;28;20042;-90
2021/11/06 14:34:21;;;;;;;0.93;0.47;;;;;;;;;;4985833;28;20501;-91
2021/11/06 14:36:54;;;;;;;1.65;0.60;;;;;;;;;;4958359;28;20280;-93
2021/11/06 14:39:21;;;;;;;2.45;0.70;;;;;;;;;;4961437;28;20056;-93
2021/11/06 14:41:58;;;;;;;1.73;0.80;;;;;;;;;;4978124;28;20034;-92
2021/11/06 14:44:33;;;;;;;1.40;0.80;;;;;;;;;;4981795;28;20039;-93
2021/11/06 14:47:06;;;;;;;1.95;0.70;;;;;;;;;;4961247;28;20045;-89
2021/11/06 14:49:36;;;;;;;2.22;0.70;;;;;;;;;;4960121;28;20066;-90